Terminal Aerodrome Forecast
Issued by NWS Omaha/Valley, NE

Home | Current Version | Previous Version | Graphics & Text | Print | Product List | Glossary On
Versions: 1 2 3 4 5 6 7 8 9 10 11 12 13 14 15 16 17 18 19 20 21 22 23 24 25 26 27 28 29 30 31 32
000
FTUS43 KOAX 290520
TAFOFK
TAF
KOFK 290520Z 2906/3006 18020G30KT P6SM BKN100
     FM291000 27014G22KT P6SM BKN070
     FM291400 32030G40KT P6SM BKN050
     FM292200 33020G30KT P6SM SKC
     FM300200 27010KT P6SM SKC=

USA.gov is the U.S. government's official web portal to all federal, state and local government web resources and services.